createdAt,value
2018-12-29T00:02:08.325Z,81.33
2018-12-29T00:04:37.821Z,72.23
2018-12-29T00:07:05.936Z,69.90
2018-12-29T00:09:33.005Z,64.73
2018-12-29T00:12:00.557Z,73.83
2018-12-29T00:14:28.118Z,70.03
2018-12-29T00:16:56.468Z,73.33
2018-12-29T00:19:24.038Z,67.20
2018-12-29T00:21:52.393Z,71.90
2018-12-29T00:24:19.945Z,61.80
2018-12-29T00:26:47.524Z,69.10
2018-12-29T00:29:15.104Z,70.67
2018-12-29T00:31:42.663Z,73.30
2018-12-29T00:34:10.246Z,69.10
2018-12-29T00:36:37.829Z,68.10
2018-12-29T00:39:05.407Z,59.73
2018-12-29T00:41:32.972Z,63.97
2018-12-29T00:44:00.561Z,61.57
2018-12-29T00:46:28.110Z,70.23
2018-12-29T00:48:56.461Z,64.73
2018-12-29T00:51:24.017Z,66.07
2018-12-29T00:53:51.598Z,65.17
2018-12-29T00:56:19.179Z,63.63
2018-12-29T00:58:46.845Z,64.93
2018-12-29T01:01:14.424Z,70.63
2018-12-29T01:03:41.987Z,58.80
2018-12-29T01:06:09.566Z,65.60
2018-12-29T01:08:37.149Z,66.87
2018-12-29T01:11:04.702Z,72.97
2018-12-29T01:13:33.283Z,59.63
2018-12-29T01:16:00.870Z,62.00
2018-12-29T01:18:28.452Z,62.93
2018-12-29T01:20:56.006Z,68.33
2018-12-29T01:23:23.564Z,73.00
2018-12-29T01:25:51.148Z,64.27
2018-12-29T01:28:18.702Z,70.57
2018-12-29T01:30:46.281Z,69.67
2018-12-29T01:33:14.597Z,73.33
2018-12-29T01:35:42.182Z,73.23
2018-12-29T01:38:09.733Z,79.73
2018-12-29T01:40:37.287Z,75.67
2018-12-29T01:43:04.865Z,76.93
2018-12-29T01:45:32.419Z,77.53
2018-12-29T01:48:00.003Z,68.90
2018-12-29T01:50:28.338Z,74.17
2018-12-29T01:52:55.918Z,65.60
2018-12-29T01:55:23.954Z,67.33
2018-12-29T01:57:51.553Z,67.70
2018-12-29T02:00:19.134Z,84.90
2018-12-29T02:02:47.480Z,67.90
2018-12-29T02:05:16.231Z,74.37
2018-12-29T02:07:43.832Z,72.57
2018-12-29T02:10:13.232Z,63.07
2018-12-29T02:12:40.943Z,70.47
2018-12-29T02:15:08.532Z,63.97
2018-12-29T02:17:36.110Z,66.13
2018-12-29T02:20:04.425Z,70.33
2018-12-29T02:22:31.977Z,71.40
2018-12-29T02:24:59.558Z,59.67
2018-12-29T02:27:27.212Z,65.82
2018-12-29T02:29:54.878Z,65.40
2018-12-29T02:32:22.431Z,71.90
2018-12-29T02:34:50.110Z,65.37
2018-12-29T02:37:17.689Z,62.17
2018-12-29T02:39:45.266Z,62.70
2018-12-29T02:42:12.814Z,57.33
2018-12-29T02:44:40.366Z,52.53
2018-12-29T02:47:07.947Z,53.73
2018-12-29T02:49:35.512Z,57.83
2018-12-29T02:52:03.103Z,59.03
2018-12-29T02:54:30.666Z,58.63
2018-12-29T02:56:58.227Z,60.00
2018-12-29T02:59:25.883Z,62.27
2018-12-29T03:01:53.404Z,59.03
2018-12-29T03:04:20.983Z,58.83
2018-12-29T03:06:48.632Z,64.40
2018-12-29T03:09:17.177Z,60.90
2018-12-29T03:11:44.728Z,66.00
2018-12-29T03:14:13.041Z,62.47
2018-12-29T03:16:41.871Z,61.93
2018-12-29T03:19:09.421Z,67.97
2018-12-29T03:21:36.993Z,61.83
2018-12-29T03:24:04.575Z,56.53
2018-12-29T03:26:32.897Z,60.03
2018-12-29T03:29:00.472Z,37.90
2018-12-29T03:31:28.028Z,43.60
2018-12-29T03:33:55.647Z,34.37
2018-12-29T03:36:23.313Z,34.37
2018-12-29T03:38:50.892Z,44.53
2018-12-29T03:41:18.446Z,49.00
2018-12-29T03:43:46.029Z,49.90
2018-12-29T03:46:13.578Z,50.37
2018-12-29T03:48:41.135Z,35.87
2018-12-29T03:51:08.751Z,36.40
2018-12-29T03:53:36.297Z,33.20
2018-12-29T03:56:03.894Z,40.40
2018-12-29T03:58:31.925Z,43.83
2018-12-29T04:00:59.557Z,47.77
2018-12-29T04:03:27.109Z,52.40
2018-12-29T04:05:54.690Z,53.63
2018-12-29T04:08:23.015Z,48.63
2018-12-29T04:10:50.615Z,43.73
2018-12-29T04:13:18.192Z,48.90
2018-12-29T04:15:45.759Z,48.50
2018-12-29T04:18:13.333Z,44.60
2018-12-29T04:20:40.899Z,46.23
2018-12-29T04:23:08.476Z,41.83
2018-12-29T04:25:36.041Z,46.20
2018-12-29T04:28:04.060Z,47.33
2018-12-29T04:30:32.636Z,40.93
2018-12-29T04:33:00.180Z,42.87
2018-12-29T04:35:27.762Z,50.20
2018-12-29T04:37:55.322Z,43.20
2018-12-29T04:40:22.896Z,42.40
2018-12-29T04:42:50.441Z,38.50
2018-12-29T04:45:18.012Z,35.23
2018-12-29T04:47:45.579Z,37.13
2018-12-29T04:50:13.124Z,37.63
2018-12-29T04:52:40.701Z,36.30
2018-12-29T04:55:08.264Z,32.93
2018-12-29T04:57:35.841Z,32.80
2018-12-29T05:00:04.160Z,32.20
2018-12-29T05:02:31.699Z,30.90
2018-12-29T05:04:59.272Z,30.87
2018-12-29T05:07:26.842Z,29.00
2018-12-29T05:09:54.417Z,36.10
2018-12-29T05:12:21.955Z,31.10
2018-12-29T05:14:49.521Z,28.90
2018-12-29T05:17:17.088Z,32.60
2018-12-29T05:19:44.660Z,29.00
2018-12-29T05:22:13.716Z,32.47
2018-12-29T05:24:41.295Z,31.13
2018-12-29T05:27:08.837Z,31.30
2018-12-29T05:29:36.411Z,34.87
2018-12-29T05:32:03.952Z,32.13
2018-12-29T05:34:31.612Z,32.40
2018-12-29T05:36:59.153Z,34.97
2018-12-29T05:39:26.721Z,31.80
2018-12-29T05:41:54.301Z,32.97
2018-12-29T05:44:21.876Z,33.20
2018-12-29T05:46:49.452Z,34.97
2018-12-29T05:49:16.996Z,32.37
2018-12-29T05:51:44.598Z,38.23
2018-12-29T05:54:12.163Z,39.80
2018-12-29T05:56:39.719Z,35.83
2018-12-29T05:59:07.268Z,34.07
2018-12-29T06:01:34.836Z,47.37
2018-12-29T06:04:02.383Z,33.77
2018-12-29T06:06:29.957Z,35.70
2018-12-29T06:08:57.542Z,31.80
2018-12-29T06:11:25.090Z,37.87
2018-12-29T06:13:52.670Z,34.20
2018-12-29T06:16:27.485Z,33.90
2018-12-29T06:18:47.847Z,33.73
2018-12-29T06:21:15.448Z,31.37
2018-12-29T06:23:42.983Z,33.03
2018-12-29T06:26:10.526Z,35.50
2018-12-29T06:28:38.103Z,37.50
2018-12-29T06:31:05.677Z,51.00
2018-12-29T06:33:33.253Z,44.93
2018-12-29T06:36:00.793Z,35.57
2018-12-29T06:38:28.372Z,31.80
2018-12-29T06:40:56.064Z,29.77
2018-12-29T06:43:24.686Z,33.87
2018-12-29T06:45:52.236Z,29.30
2018-12-29T06:48:19.812Z,36.90
2018-12-29T06:50:47.357Z,33.90
2018-12-29T06:53:14.932Z,55.73
2018-12-29T06:55:42.472Z,43.00
2018-12-29T06:58:10.049Z,37.37
2018-12-29T07:00:38.388Z,37.50
2018-12-29T07:03:05.936Z,39.97
2018-12-29T07:05:33.509Z,29.73
2018-12-29T07:08:01.057Z,31.87
2018-12-29T07:10:28.984Z,32.50
2018-12-29T07:12:56.526Z,32.43
2018-12-29T07:15:24.095Z,31.40
2018-12-29T07:17:51.667Z,35.50
2018-12-29T07:20:19.215Z,35.10
2018-12-29T07:22:46.787Z,32.70
2018-12-29T07:25:14.364Z,38.60
2018-12-29T07:27:41.936Z,33.93
2018-12-29T07:30:09.521Z,33.33
2018-12-29T07:32:37.100Z,34.97
2018-12-29T07:35:04.688Z,31.17
2018-12-29T07:37:32.324Z,33.23
2018-12-29T07:39:59.902Z,31.50
2018-12-29T07:42:27.449Z,31.07
2018-12-29T07:44:55.028Z,28.57
2018-12-29T07:47:22.565Z,30.90
2018-12-29T07:49:50.107Z,31.17
2018-12-29T07:52:17.684Z,30.30
2018-12-29T07:54:45.234Z,33.17
2018-12-29T07:57:12.808Z,28.30
2018-12-29T07:59:40.355Z,33.13
2018-12-29T08:02:08.909Z,35.73
2018-12-29T08:04:36.452Z,34.20
2018-12-29T08:07:04.025Z,36.97
2018-12-29T08:09:31.573Z,46.13
2018-12-29T08:11:59.914Z,42.50
2018-12-29T08:14:27.467Z,42.23
2018-12-29T08:16:56.934Z,41.53
2018-12-29T08:19:23.836Z,45.70
2018-12-29T08:21:51.383Z,42.17
2018-12-29T08:24:18.958Z,41.30
2018-12-29T08:26:46.510Z,40.43
2018-12-29T08:29:14.848Z,41.63
2018-12-29T08:31:42.697Z,35.60
2018-12-29T08:34:10.302Z,35.73
2018-12-29T08:36:37.857Z,35.07
2018-12-29T08:39:05.431Z,42.40
2018-12-29T08:41:32.999Z,36.50
2018-12-29T08:44:00.569Z,53.73
2018-12-29T08:46:28.121Z,40.80
2018-12-29T08:48:55.716Z,36.53
2018-12-29T08:51:23.261Z,34.43
2018-12-29T08:53:50.828Z,52.33
2018-12-29T08:56:20.314Z,34.37
2018-12-29T08:58:47.856Z,33.47
2018-12-29T09:01:15.396Z,32.43
2018-12-29T09:03:42.970Z,31.77
2018-12-29T09:06:10.536Z,33.03
2018-12-29T09:08:38.108Z,69.23
2018-12-29T09:11:05.655Z,57.43
2018-12-29T09:13:33.231Z,36.10
2018-12-29T09:16:00.814Z,32.53
2018-12-29T09:18:28.396Z,67.97
2018-12-29T09:20:55.943Z,37.30
2018-12-29T09:23:23.488Z,32.07
2018-12-29T09:25:51.064Z,60.53
2018-12-29T09:28:18.608Z,54.23
2018-12-29T09:30:47.164Z,41.27
2018-12-29T09:33:14.747Z,28.73
2018-12-29T09:35:42.288Z,27.97
2018-12-29T09:38:09.865Z,31.40
2018-12-29T09:40:37.422Z,31.47
2018-12-29T09:43:06.762Z,31.60
2018-12-29T09:45:34.308Z,31.47
2018-12-29T09:48:02.871Z,34.40
2018-12-29T09:50:30.424Z,32.70
2018-12-29T09:52:58.763Z,33.53
2018-12-29T09:55:26.328Z,32.23
2018-12-29T09:57:53.898Z,31.00
2018-12-29T10:00:21.471Z,34.03
2018-12-29T10:02:49.808Z,39.77
2018-12-29T10:05:17.368Z,49.37
2018-12-29T10:07:44.951Z,35.83
2018-12-29T10:10:13.291Z,37.47
2018-12-29T10:12:40.832Z,33.23
2018-12-29T10:15:08.371Z,35.80
2018-12-29T10:17:36.939Z,39.90
2018-12-29T10:20:04.486Z,36.53
2018-12-29T10:22:32.061Z,35.23
2018-12-29T10:25:00.636Z,31.87
2018-12-29T10:27:28.946Z,35.57
2018-12-29T10:29:57.506Z,39.77
2018-12-29T10:32:25.088Z,34.90
2018-12-29T10:34:52.656Z,35.27
2018-12-29T10:37:20.198Z,33.90
2018-12-29T10:39:47.772Z,33.40
2018-12-29T10:42:15.312Z,39.67
2018-12-29T10:44:42.888Z,33.40
2018-12-29T10:47:10.436Z,37.53
2018-12-29T10:49:38.009Z,35.87
2018-12-29T10:52:05.727Z,33.43
2018-12-29T10:54:33.296Z,35.57
2018-12-29T10:57:01.771Z,38.13
2018-12-29T10:59:29.344Z,40.40
2018-12-29T11:01:56.917Z,34.90
2018-12-29T11:04:24.520Z,38.43
2018-12-29T11:06:52.831Z,36.73
2018-12-29T11:09:20.371Z,33.80
2018-12-29T11:11:47.939Z,35.07
2018-12-29T11:14:15.477Z,40.20
2018-12-29T11:16:43.817Z,31.47
2018-12-29T11:19:11.392Z,39.10
2018-12-29T11:21:38.939Z,48.63
2018-12-29T11:24:06.507Z,31.93
2018-12-29T11:26:34.092Z,30.37
2018-12-29T11:29:01.660Z,30.47
2018-12-29T11:31:29.208Z,30.50
2018-12-29T11:33:57.042Z,31.53
2018-12-29T11:36:24.621Z,32.03
2018-12-29T11:38:52.160Z,30.87
2018-12-29T11:41:19.727Z,29.80
2018-12-29T11:43:48.026Z,30.60
2018-12-29T11:46:15.565Z,32.73
2018-12-29T11:48:43.138Z,34.10
2018-12-29T11:51:10.726Z,38.20
2018-12-29T11:53:38.292Z,37.23
2018-12-29T11:56:05.860Z,35.40
2018-12-29T11:58:33.447Z,33.77
2018-12-29T12:01:01.008Z,35.00
2018-12-29T12:03:28.585Z,33.30
2018-12-29T12:05:56.141Z,31.30
2018-12-29T12:08:23.721Z,31.63
2018-12-29T12:10:51.295Z,34.77
2018-12-29T12:13:18.867Z,31.27
2018-12-29T12:15:46.425Z,31.73
2018-12-29T12:18:14.068Z,38.20
2018-12-29T12:20:41.631Z,31.77
2018-12-29T12:23:09.981Z,32.73
2018-12-29T12:25:37.544Z,32.67
2018-12-29T12:28:05.160Z,31.80
2018-12-29T12:30:32.712Z,33.90
2018-12-29T12:33:00.268Z,42.87
2018-12-29T12:35:28.621Z,41.87
2018-12-29T12:37:56.170Z,35.80
2018-12-29T12:40:23.776Z,37.80
2018-12-29T12:42:51.364Z,38.70
2018-12-29T12:45:18.948Z,38.30
2018-12-29T12:47:47.267Z,36.43
2018-12-29T12:50:14.824Z,42.57
2018-12-29T12:52:42.406Z,34.37
2018-12-29T12:55:10.000Z,37.77
2018-12-29T12:57:37.566Z,37.00
2018-12-29T13:00:05.187Z,37.13
2018-12-29T13:02:32.812Z,42.85
2018-12-29T13:05:00.352Z,37.73
2018-12-29T13:07:27.931Z,44.13
2018-12-29T13:09:55.486Z,43.90
2018-12-29T13:12:23.062Z,45.80
2018-12-29T13:14:51.453Z,49.40
2018-12-29T13:17:19.031Z,54.03
2018-12-29T13:19:46.624Z,49.40
2018-12-29T13:22:14.180Z,51.17
2018-12-29T13:24:41.756Z,49.77
2018-12-29T13:27:09.372Z,62.73
2018-12-29T13:29:37.692Z,50.10
2018-12-29T13:32:05.268Z,47.47
2018-12-29T13:34:32.820Z,48.10
2018-12-29T13:37:00.400Z,50.40
2018-12-29T13:39:27.956Z,55.17
2018-12-29T13:41:55.512Z,55.80
2018-12-29T13:44:23.096Z,53.87
2018-12-29T13:46:50.651Z,55.67
2018-12-29T13:49:18.233Z,49.63
2018-12-29T13:51:45.812Z,55.27
2018-12-29T13:54:13.427Z,61.13
2018-12-29T13:56:40.973Z,56.43
2018-12-29T13:59:11.372Z,54.87
2018-12-29T14:01:38.957Z,49.83
2018-12-29T14:04:06.557Z,51.30
2018-12-29T14:06:34.150Z,44.93
2018-12-29T14:09:03.245Z,51.33
2018-12-29T14:11:29.354Z,49.67
2018-12-29T14:13:56.937Z,49.47
2018-12-29T14:16:24.495Z,65.87
2018-12-29T14:18:52.084Z,51.57
2018-12-29T14:21:19.664Z,53.07
2018-12-29T14:23:47.228Z,52.60
2018-12-29T14:26:14.821Z,54.65
2018-12-29T14:28:42.384Z,59.20
2018-12-29T14:31:09.970Z,58.20
2018-12-29T14:33:37.527Z,54.67
2018-12-29T14:36:05.881Z,55.13
2018-12-29T14:38:33.465Z,51.60
2018-12-29T14:41:01.032Z,53.80
2018-12-29T14:43:28.617Z,66.70
2018-12-29T14:45:56.170Z,65.47
2018-12-29T14:48:23.773Z,58.77
2018-12-29T14:50:51.319Z,54.67
2018-12-29T14:53:18.878Z,60.47
2018-12-29T14:55:47.212Z,54.60
2018-12-29T14:58:15.048Z,54.70
2018-12-29T15:00:42.638Z,62.13
2018-12-29T15:03:10.323Z,62.00
2018-12-29T15:05:37.884Z,62.80
2018-12-29T15:08:05.476Z,65.07
2018-12-29T15:10:33.052Z,63.90
2018-12-29T15:13:00.646Z,61.77
2018-12-29T15:15:28.221Z,57.60
2018-12-29T15:17:55.808Z,57.10
2018-12-29T15:20:23.399Z,54.90
2018-12-29T15:22:51.024Z,57.37
2018-12-29T15:25:18.588Z,58.60
2018-12-29T15:27:46.180Z,57.20
2018-12-29T15:30:13.797Z,55.47
2018-12-29T15:32:41.356Z,60.17
2018-12-29T15:35:08.992Z,74.17
2018-12-29T15:37:36.553Z,80.87
2018-12-29T15:40:04.145Z,81.43
2018-12-29T15:42:31.701Z,77.53
2018-12-29T15:44:59.277Z,116.27
2018-12-29T15:47:26.986Z,67.53
2018-12-29T15:49:56.365Z,110.43
2018-12-29T15:52:23.928Z,146.90
2018-12-29T15:54:52.548Z,78.27
2018-12-29T15:57:21.032Z,144.40
2018-12-29T15:59:48.632Z,88.40
2018-12-29T16:02:16.235Z,65.10
2018-12-29T16:04:44.560Z,64.17
2018-12-29T16:07:12.152Z,58.03
2018-12-29T16:09:40.757Z,60.13
2018-12-29T16:12:08.319Z,58.90
2018-12-29T16:14:36.699Z,58.87
2018-12-29T16:17:05.041Z,65.03
2018-12-29T16:19:33.438Z,65.50
2018-12-29T16:22:01.779Z,64.53
2018-12-29T16:24:29.350Z,61.53
2018-12-29T16:26:56.940Z,57.33
2018-12-29T16:29:24.513Z,69.60
2018-12-29T16:31:52.316Z,59.50
2018-12-29T16:34:19.892Z,57.83
2018-12-29T16:36:47.479Z,58.90
2018-12-29T16:39:15.049Z,61.43
2018-12-29T16:41:42.633Z,55.17
2018-12-29T16:44:10.224Z,52.97
2018-12-29T16:46:37.775Z,60.53
2018-12-29T16:49:06.983Z,64.27
2018-12-29T16:51:33.980Z,58.05
2018-12-29T16:54:01.584Z,68.83
2018-12-29T16:56:29.170Z,62.93
2018-12-29T16:58:56.764Z,56.20
2018-12-29T17:01:24.363Z,60.30
2018-12-29T17:03:51.972Z,52.57
2018-12-29T17:06:19.535Z,52.20
2018-12-29T17:08:47.125Z,58.83
2018-12-29T17:11:14.721Z,60.43
2018-12-29T17:13:42.339Z,58.00
2018-12-29T17:16:09.905Z,59.77
2018-12-29T17:18:37.469Z,56.83
2018-12-29T17:21:05.085Z,68.40
2018-12-29T17:23:32.641Z,65.60
2018-12-29T17:26:00.235Z,62.53
2018-12-29T17:28:28.613Z,61.40
2018-12-29T17:30:56.768Z,69.55
2018-12-29T17:33:24.331Z,72.10
2018-12-29T17:35:51.936Z,63.33
2018-12-29T17:38:19.532Z,75.50
2018-12-29T17:40:47.088Z,68.53
2018-12-29T17:43:14.673Z,61.00
2018-12-29T17:45:42.265Z,73.10
2018-12-29T17:48:10.837Z,68.83
2018-12-29T17:50:38.412Z,62.73
2018-12-29T17:53:06.007Z,60.00
2018-12-29T17:55:33.569Z,81.10
2018-12-29T17:58:01.156Z,65.63
2018-12-29T18:00:30.244Z,62.83
2018-12-29T18:05:49.418Z,61.33
2018-12-29T18:08:16.994Z,73.83
2018-12-29T18:10:45.576Z,64.10
2018-12-29T18:13:13.928Z,63.33
2018-12-29T18:15:41.501Z,56.73
2018-12-29T18:18:09.460Z,58.20
2018-12-29T18:20:37.091Z,62.00
2018-12-29T18:23:04.688Z,65.43
2018-12-29T18:25:33.028Z,66.47
2018-12-29T18:28:00.630Z,61.97
2018-12-29T18:30:28.232Z,59.73
2018-12-29T18:32:55.820Z,59.20
2018-12-29T18:35:23.420Z,59.57
2018-12-29T18:37:50.984Z,63.73
2018-12-29T18:40:18.691Z,57.93
2018-12-29T18:42:47.055Z,62.10
2018-12-29T18:45:14.652Z,73.90
2018-12-29T18:47:42.221Z,73.90
2018-12-29T18:50:09.818Z,64.53
2018-12-29T18:52:37.404Z,74.23
2018-12-29T18:55:05.005Z,59.33
2018-12-29T18:57:32.605Z,62.50
2018-12-29T19:00:00.181Z,62.17
2018-12-29T19:02:28.533Z,66.20
2018-12-29T19:04:56.132Z,64.57
2018-12-29T19:07:23.754Z,59.53
2018-12-29T19:09:51.349Z,63.03
2018-12-29T19:12:18.913Z,63.97
2018-12-29T19:14:46.488Z,62.40
2018-12-29T19:17:14.837Z,69.40
2018-12-29T19:19:46.242Z,62.47
2018-12-29T19:22:10.065Z,67.10
2018-12-29T19:24:38.401Z,61.00
2018-12-29T19:27:06.007Z,57.03
2018-12-29T19:29:33.561Z,58.30
2018-12-29T19:32:01.157Z,60.43
2018-12-29T19:34:28.892Z,61.50
2018-12-29T19:36:56.376Z,60.90
2018-12-29T19:39:24.006Z,64.53
2018-12-29T19:41:55.023Z,60.43
2018-12-29T19:44:19.169Z,59.40
2018-12-29T19:46:46.795Z,65.47
2018-12-29T19:49:14.405Z,65.40
2018-12-29T19:51:42.027Z,61.33
2018-12-29T19:54:10.593Z,69.77
2018-12-29T19:56:38.215Z,60.17
2018-12-29T19:59:05.841Z,65.70
2018-12-29T20:01:33.400Z,68.70
2018-12-29T20:04:01.002Z,67.80
2018-12-29T20:06:28.582Z,65.70
2018-12-29T20:08:56.141Z,65.63
2018-12-29T20:11:23.722Z,63.20
2018-12-29T20:13:51.277Z,62.60
2018-12-29T20:16:18.880Z,61.00
2018-12-29T20:18:46.436Z,62.60
2018-12-29T20:21:14.768Z,62.50
2018-12-29T20:23:42.572Z,68.70
2018-12-29T20:26:10.930Z,60.43
2018-12-29T20:28:38.524Z,57.83
2018-12-29T20:31:06.117Z,68.77
2018-12-29T20:33:33.708Z,65.60
2018-12-29T20:36:01.288Z,61.67
2018-12-29T20:38:28.872Z,64.97
2018-12-29T20:40:56.448Z,63.33
2018-12-29T20:43:24.031Z,65.83
2018-12-29T20:45:52.428Z,59.00
2018-12-29T20:48:20.068Z,73.80
2018-12-29T20:50:47.661Z,63.70
2018-12-29T20:53:15.740Z,64.67
2018-12-29T20:55:43.325Z,61.30
2018-12-29T20:58:11.336Z,59.00
2018-12-29T21:00:40.188Z,72.33
2018-12-29T21:03:08.983Z,68.00
2018-12-29T21:05:36.584Z,65.43
2018-12-29T21:08:04.185Z,64.57
2018-12-29T21:10:31.842Z,64.27
2018-12-29T21:12:59.451Z,62.13
2018-12-29T21:15:27.369Z,70.80
2018-12-29T21:17:54.960Z,60.43
2018-12-29T21:20:22.521Z,64.60
2018-12-29T21:22:50.113Z,67.97
2018-12-29T21:25:17.684Z,65.03
2018-12-29T21:27:45.280Z,65.87
2018-12-29T21:30:13.676Z,64.60
2018-12-29T21:32:41.240Z,66.93
2018-12-29T21:35:08.826Z,64.27
2018-12-29T21:37:36.616Z,59.80
2018-12-29T21:40:04.240Z,68.00
2018-12-29T21:42:31.810Z,70.67
2018-12-29T21:44:59.709Z,76.40
2018-12-29T21:47:27.300Z,82.20
2018-12-29T21:49:54.864Z,81.77
2018-12-29T21:52:22.450Z,77.47
2018-12-29T21:54:51.044Z,64.17
2018-12-29T21:57:18.700Z,65.70
2018-12-29T21:59:46.342Z,70.67
2018-12-29T22:02:13.909Z,66.17
2018-12-29T22:04:41.497Z,66.90
2018-12-29T22:07:09.052Z,71.50
2018-12-29T22:09:36.612Z,64.87
2018-12-29T22:12:04.200Z,75.30
2018-12-29T22:14:32.813Z,71.33
2018-12-29T22:17:00.376Z,69.90
2018-12-29T22:19:27.938Z,66.17
2018-12-29T22:21:55.537Z,78.37
2018-12-29T22:24:23.120Z,71.53
2018-12-29T22:26:50.701Z,68.77
2018-12-29T22:29:18.293Z,70.33
2018-12-29T22:31:45.877Z,64.37
2018-12-29T22:34:13.440Z,62.67
2018-12-29T22:36:41.040Z,74.73
2018-12-29T22:39:08.629Z,63.50
2018-12-29T22:41:37.022Z,65.83
2018-12-29T22:44:05.537Z,68.07
2018-12-29T22:46:34.001Z,69.67
2018-12-29T22:49:02.365Z,62.53
2018-12-29T22:51:29.928Z,72.47
2018-12-29T22:53:57.500Z,69.03
2018-12-29T22:56:25.125Z,59.43
2018-12-29T22:58:52.881Z,65.47
2018-12-29T23:01:20.492Z,61.37
2018-12-29T23:03:48.068Z,64.00
2018-12-29T23:06:16.407Z,64.87
2018-12-29T23:08:44.862Z,66.03
2018-12-29T23:11:12.421Z,66.13
2018-12-29T23:13:40.020Z,66.67
2018-12-29T23:16:07.595Z,59.97
2018-12-29T23:18:35.151Z,63.50
2018-12-29T23:21:02.732Z,64.97
2018-12-29T23:23:30.333Z,72.70
2018-12-29T23:25:57.924Z,67.93
2018-12-29T23:28:25.519Z,57.47
2018-12-29T23:30:53.141Z,59.77
2018-12-29T23:33:20.739Z,71.13
2018-12-29T23:35:48.305Z,63.93
2018-12-29T23:38:15.911Z,63.07
2018-12-29T23:40:43.489Z,59.67
2018-12-29T23:43:11.080Z,63.33
2018-12-29T23:45:38.681Z,62.40
2018-12-29T23:48:06.280Z,60.00
2018-12-29T23:50:33.841Z,64.78
2018-12-29T23:53:01.432Z,62.83
2018-12-29T23:55:29.056Z,64.17
2018-12-29T23:57:56.624Z,65.23
